createdAt,value
2018-03-27T03:32:36.071Z,4.40
2018-03-27T03:35:10.697Z,4.40
2018-03-27T03:37:44.558Z,4.40
2018-03-27T03:40:18.979Z,4.40
2018-03-27T03:42:52.832Z,4.40
2018-03-27T03:45:26.607Z,4.40
2018-03-27T03:48:00.482Z,4.40
2018-03-27T03:50:34.356Z,4.40
2018-03-27T03:53:08.196Z,4.40
2018-03-27T03:55:41.847Z,4.40
2018-03-27T03:58:35.256Z,4.40
2018-03-27T04:01:09.147Z,4.40
2018-03-27T04:03:43.253Z,4.30
2018-03-27T04:06:16.998Z,4.30
2018-03-27T04:08:51.472Z,4.30
2018-03-27T04:11:26.074Z,4.30
2018-03-27T04:14:00.630Z,4.30
2018-03-27T04:16:36.732Z,4.30
2018-03-27T04:19:10.480Z,4.40
2018-03-27T04:21:44.185Z,4.40
2018-03-27T04:24:18.108Z,4.40
2018-03-27T04:26:52.568Z,4.40
2018-03-27T04:29:27.143Z,4.30
2018-03-27T04:32:01.787Z,4.30
2018-03-27T04:34:35.459Z,4.30
2018-03-27T04:37:09.280Z,4.30
2018-03-27T04:39:43.104Z,4.20
2018-03-27T04:42:16.748Z,4.20
2018-03-27T04:44:51.405Z,4.20
2018-03-27T04:47:25.188Z,4.20
2018-03-27T04:50:01.968Z,4.30
2018-03-27T04:52:36.701Z,4.40
2018-03-27T04:55:10.412Z,4.40
2018-03-27T04:57:44.422Z,4.40
2018-03-27T05:00:18.193Z,4.40
2018-03-27T05:02:51.931Z,4.30
2018-03-27T05:05:25.774Z,4.20
2018-03-27T05:07:59.480Z,4.20
2018-03-27T05:10:33.264Z,4.10
2018-03-27T05:13:07.096Z,4.10
2018-03-27T05:15:41.101Z,4.20
2018-03-27T05:18:14.809Z,4.20
2018-03-27T05:20:49.389Z,4.30
2018-03-27T05:23:23.056Z,4.30
2018-03-27T05:25:56.796Z,4.40
2018-03-27T05:28:30.840Z,4.40
2018-03-27T05:31:05.831Z,4.50
2018-03-27T05:33:39.544Z,4.50
2018-03-27T05:36:13.375Z,4.60
2018-03-27T05:38:47.258Z,4.70
2018-03-27T05:41:21.185Z,4.70
2018-03-27T05:43:54.989Z,4.70
2018-03-27T05:46:28.801Z,4.70
2018-03-27T05:49:02.576Z,4.70
2018-03-27T05:51:37.215Z,4.80
2018-03-27T05:54:11.077Z,4.80
2018-03-27T05:56:48.250Z,4.90
2018-03-27T05:59:21.887Z,4.90
2018-03-27T06:01:55.548Z,5.00
2018-03-27T06:04:29.375Z,5.00
2018-03-27T06:07:03.928Z,5.10
2018-03-27T06:09:37.632Z,5.10
2018-03-27T06:12:11.469Z,5.20
2018-03-27T06:14:46.147Z,5.20
2018-03-27T06:17:19.920Z,5.20
2018-03-27T06:19:56.903Z,5.20
2018-03-27T06:22:30.705Z,5.20
2018-03-27T06:25:04.548Z,5.20
2018-03-27T06:27:38.341Z,5.30
2018-03-27T06:30:12.224Z,5.30
2018-03-27T06:32:45.913Z,5.50
2018-03-27T06:35:19.639Z,5.50
2018-03-27T06:37:54.234Z,5.50
2018-03-27T06:40:29.008Z,5.50
2018-03-27T06:43:02.764Z,5.50
2018-03-27T06:45:36.625Z,5.50
2018-03-27T06:48:10.391Z,5.60
2018-03-27T06:50:44.381Z,5.60
2018-03-27T06:53:18.263Z,5.70
2018-03-27T06:55:52.061Z,5.80
2018-03-27T06:58:25.795Z,5.90
2018-03-27T07:01:00.441Z,6.10
2018-03-27T07:03:34.233Z,6.10
2018-03-27T07:06:09.696Z,6.10
2018-03-27T07:08:43.375Z,6.10
2018-03-27T07:11:17.996Z,6.40
2018-03-27T07:13:51.684Z,6.40
2018-03-27T07:16:25.543Z,6.70
2018-03-27T07:18:59.251Z,7.10
2018-03-27T07:21:33.904Z,7.40
2018-03-27T07:24:07.963Z,7.40
2018-03-27T07:26:41.742Z,7.50
2018-03-27T07:29:15.605Z,7.60
2018-03-27T07:31:50.064Z,8.00
2018-03-27T07:34:24.530Z,8.20
2018-03-27T07:36:58.919Z,8.20
2018-03-27T07:39:33.348Z,8.20
2018-03-27T07:42:07.935Z,8.40
2018-03-27T07:44:41.795Z,8.40
2018-03-27T07:47:16.403Z,8.60
2018-03-27T07:49:50.165Z,8.60
2018-03-27T07:52:24.717Z,8.70
2018-03-27T07:54:58.868Z,8.70
2018-03-27T07:57:32.584Z,8.80
2018-03-27T08:00:06.413Z,8.80
2018-03-27T08:02:40.263Z,8.80
2018-03-27T08:05:14.017Z,8.70
2018-03-27T08:07:47.801Z,8.80
2018-03-27T08:10:21.572Z,8.80
2018-03-27T08:12:55.180Z,8.80
2018-03-27T08:15:29.072Z,8.90
2018-03-27T08:18:02.715Z,9.10
2018-03-27T08:20:36.568Z,9.20
2018-03-27T08:23:10.305Z,9.30
2018-03-27T08:25:44.077Z,9.60
2018-03-27T08:28:18.717Z,11.20
2018-03-27T08:30:53.288Z,11.90
2018-03-27T08:33:27.095Z,11.80
2018-03-27T08:36:01.719Z,12.90
2018-03-27T08:38:35.457Z,12.90
2018-03-27T08:41:10.020Z,14.40
2018-03-27T08:43:45.457Z,14.90
2018-03-27T08:46:19.216Z,14.80
2018-03-27T08:48:52.993Z,14.70
2018-03-27T08:51:27.233Z,14.40
2018-03-27T08:54:03.129Z,14.80
2018-03-27T08:56:36.943Z,14.80
2018-03-27T08:59:11.603Z,14.00
2018-03-27T09:01:46.204Z,14.30
2018-03-27T09:04:20.012Z,14.30
2018-03-27T09:06:54.972Z,14.40
2018-03-27T09:09:29.528Z,14.10
2018-03-27T09:12:03.285Z,13.00
2018-03-27T09:14:37.927Z,13.40
2018-03-27T09:17:11.721Z,13.50
2018-03-27T09:19:45.572Z,13.00
2018-03-27T09:22:20.258Z,12.30
2018-03-27T09:24:53.949Z,12.30
2018-03-27T09:27:27.776Z,12.40
2018-03-27T09:30:01.604Z,12.00
2018-03-27T09:32:36.174Z,11.70
2018-03-27T09:35:09.966Z,11.70
2018-03-27T09:37:43.807Z,12.00
2018-03-27T09:40:17.552Z,11.90
2018-03-27T09:42:52.118Z,11.70
2018-03-27T09:45:25.948Z,11.70
2018-03-27T09:47:59.728Z,11.90
2018-03-27T09:50:33.535Z,12.30
2018-03-27T09:53:07.382Z,12.70
2018-03-27T09:55:41.201Z,13.00
2018-03-27T09:58:15.062Z,13.40
2018-03-27T10:00:50.675Z,14.20
2018-03-27T10:03:24.631Z,14.20
2018-03-27T10:05:58.452Z,13.80
2018-03-27T10:08:32.955Z,13.50
2018-03-27T10:11:07.564Z,13.60
2018-03-27T10:13:41.277Z,13.60
2018-03-27T10:16:15.274Z,13.90
2018-03-27T10:18:48.978Z,14.20
2018-03-27T10:21:22.864Z,14.30
2018-03-27T10:23:56.672Z,14.30
2018-03-27T10:26:30.520Z,14.00
2018-03-27T10:29:05.138Z,14.60
2018-03-27T10:31:39.003Z,14.60
2018-03-27T10:34:13.587Z,14.50
2018-03-27T10:36:47.648Z,14.50
2018-03-27T10:39:21.453Z,15.50
2018-03-27T10:41:55.601Z,16.20
2018-03-27T10:44:29.396Z,16.00
2018-03-27T10:47:03.236Z,15.30
2018-03-27T10:49:37.841Z,13.90
2018-03-27T10:52:12.384Z,13.40
2018-03-27T10:54:46.084Z,13.40
2018-03-27T10:57:19.844Z,13.40
2018-03-27T10:59:55.320Z,13.40
2018-03-27T11:02:29.144Z,13.10
2018-03-27T11:05:02.956Z,12.70
2018-03-27T11:07:37.568Z,12.20
2018-03-27T11:10:11.397Z,12.20
2018-03-27T11:12:45.274Z,12.20
2018-03-27T11:15:18.966Z,12.20
2018-03-27T11:17:52.708Z,12.30
2018-03-27T11:20:27.296Z,12.10
2018-03-27T11:23:01.165Z,12.10
2018-03-27T11:25:34.989Z,11.90
2018-03-27T11:28:08.783Z,12.10
2018-03-27T11:30:42.555Z,11.90
2018-03-27T11:33:17.280Z,12.10
2018-03-27T11:35:51.792Z,12.10
2018-03-27T11:38:25.601Z,12.10
2018-03-27T11:40:59.241Z,12.00
2018-03-27T11:43:33.120Z,11.60
2018-03-27T11:46:07.823Z,11.80
2018-03-27T11:48:43.174Z,11.70
2018-03-27T11:51:17.821Z,11.80
2018-03-27T11:53:51.575Z,11.70
2018-03-27T11:56:26.233Z,11.50
2018-03-27T11:59:00.325Z,11.50
2018-03-27T12:01:34.451Z,11.70
2018-03-27T12:04:09.056Z,11.70
2018-03-27T12:06:43.614Z,12.00
2018-03-27T12:09:17.306Z,11.90
2018-03-27T12:11:51.329Z,12.10
2018-03-27T12:14:24.928Z,12.50
2018-03-27T12:16:58.776Z,12.40
2018-03-27T12:19:33.335Z,11.80
2018-03-27T12:22:07.238Z,11.80
2018-03-27T12:24:41.771Z,12.00
2018-03-27T12:27:16.597Z,12.30
2018-03-27T12:29:50.484Z,12.30
2018-03-27T12:32:24.324Z,12.40
2018-03-27T12:34:58.923Z,13.00
2018-03-27T12:37:32.800Z,13.00
2018-03-27T12:40:06.528Z,13.10
2018-03-27T12:42:40.369Z,13.20
2018-03-27T12:45:14.186Z,13.40
2018-03-27T12:47:48.152Z,13.50
2018-03-27T12:50:21.940Z,13.50
2018-03-27T12:52:55.903Z,13.60
2018-03-27T12:55:29.726Z,13.70
2018-03-27T12:58:03.497Z,13.70
2018-03-27T13:00:37.343Z,13.40
2018-03-27T13:03:11.280Z,13.40
2018-03-27T13:05:45.078Z,13.40
2018-03-27T13:08:20.393Z,13.80
2018-03-27T13:10:54.905Z,13.80
2018-03-27T13:13:28.617Z,13.70
2018-03-27T13:16:03.236Z,14.10
2018-03-27T13:18:37.943Z,14.30
2018-03-27T13:21:11.945Z,14.30
2018-03-27T13:23:45.749Z,14.20
2018-03-27T13:26:20.317Z,14.00
2018-03-27T13:28:54.156Z,14.00
2018-03-27T13:31:28.065Z,14.10
2018-03-27T13:34:01.802Z,14.20
2018-03-27T13:36:35.831Z,14.40
2018-03-27T13:39:09.927Z,14.30
2018-03-27T13:41:43.693Z,14.30
2018-03-27T13:44:18.340Z,14.20
2018-03-27T13:46:53.449Z,14.30
2018-03-27T13:49:27.516Z,14.30
2018-03-27T13:52:03.322Z,14.40
2018-03-27T13:54:36.968Z,14.30
2018-03-27T13:57:10.876Z,14.20
2018-03-27T13:59:44.587Z,14.20
2018-03-27T14:02:18.368Z,14.10
2018-03-27T14:04:52.218Z,14.10
2018-03-27T14:07:26.325Z,13.80
2018-03-27T14:10:00.027Z,13.70
2018-03-27T14:12:33.874Z,13.60
2018-03-27T14:15:08.523Z,13.70
2018-03-27T14:17:43.090Z,13.60
2018-03-27T14:20:16.796Z,13.60
2018-03-27T14:22:51.392Z,13.70
2018-03-27T14:25:26.051Z,13.70
2018-03-27T14:28:00.658Z,13.70
2018-03-27T14:30:34.291Z,13.70
2018-03-27T14:33:08.895Z,13.90
2018-03-27T14:35:42.631Z,13.90
2018-03-27T14:38:16.408Z,14.00
2018-03-27T14:40:50.182Z,14.00
2018-03-27T14:43:24.076Z,14.00
2018-03-27T14:45:57.811Z,13.80
2018-03-27T14:48:31.665Z,13.70
2018-03-27T14:51:06.216Z,13.20
2018-03-27T14:53:40.064Z,13.10
2018-03-27T14:56:14.658Z,13.20
2018-03-27T14:58:49.621Z,13.10
2018-03-27T15:01:23.292Z,13.10
2018-03-27T15:03:57.724Z,13.20
2018-03-27T15:06:31.644Z,13.20
2018-03-27T15:09:06.264Z,13.10
2018-03-27T15:11:40.102Z,13.10
2018-03-27T15:14:14.700Z,13.00
2018-03-27T15:17:20.766Z,13.00
2018-03-27T15:19:55.364Z,13.10
2018-03-27T15:22:29.172Z,13.00
2018-03-27T15:25:02.969Z,12.90
2018-03-27T15:27:36.733Z,13.00
2018-03-27T15:30:10.475Z,13.00
2018-03-27T15:32:45.132Z,12.80
2018-03-27T15:35:18.951Z,12.80
2018-03-27T15:37:53.062Z,13.00
2018-03-27T15:40:26.868Z,13.00
2018-03-27T15:43:01.496Z,13.10
2018-03-27T15:45:35.291Z,13.10
2018-03-27T15:48:09.237Z,13.10
2018-03-27T15:50:43.048Z,13.10
2018-03-27T15:53:17.748Z,13.10
2018-03-27T15:55:51.556Z,13.10
2018-03-27T15:58:25.467Z,13.10
2018-03-27T16:01:00.057Z,13.00
2018-03-27T16:03:33.815Z,13.00
2018-03-27T16:06:08.462Z,12.90
2018-03-27T16:08:42.404Z,12.90
2018-03-27T16:11:17.022Z,12.60
2018-03-27T16:13:50.888Z,12.60
2018-03-27T16:16:24.709Z,12.70
2018-03-27T16:18:58.555Z,12.50
2018-03-27T16:21:32.380Z,12.50
2018-03-27T16:24:06.342Z,12.60
2018-03-27T16:26:41.816Z,12.60
2018-03-27T16:29:15.578Z,12.60
2018-03-27T16:31:50.127Z,12.50
2018-03-27T16:34:24.698Z,12.50
2018-03-27T16:36:59.166Z,12.50
2018-03-27T16:39:32.997Z,12.50
2018-03-27T16:42:06.824Z,12.50
2018-03-27T16:44:40.598Z,12.60
2018-03-27T16:47:15.218Z,12.60
2018-03-27T16:49:49.072Z,12.60
2018-03-27T16:52:22.961Z,12.50
2018-03-27T16:54:57.449Z,12.30
2018-03-27T16:57:32.013Z,12.30
2018-03-27T17:00:05.795Z,12.30
2018-03-27T17:02:39.669Z,12.30
2018-03-27T17:05:13.505Z,12.20
2018-03-27T17:07:47.360Z,12.00
2018-03-27T17:10:21.987Z,11.90
2018-03-27T17:12:55.683Z,11.90
2018-03-27T17:15:29.467Z,11.80
2018-03-27T17:18:03.468Z,11.60
2018-03-27T17:20:37.590Z,11.60
2018-03-27T17:23:11.404Z,11.70
2018-03-27T17:25:45.337Z,11.60
2018-03-27T17:28:20.021Z,11.60
2018-03-27T17:30:53.668Z,11.60
2018-03-27T17:33:27.399Z,11.60
2018-03-27T17:36:01.462Z,11.50
2018-03-27T17:38:36.076Z,11.40
2018-03-27T17:41:09.883Z,11.40
2018-03-27T17:43:43.704Z,11.40
2018-03-27T17:46:18.309Z,11.40
2018-03-27T17:48:52.136Z,11.40
2018-03-27T17:51:25.903Z,11.30
2018-03-27T17:54:00.051Z,11.30
2018-03-27T17:56:33.824Z,11.10
2018-03-27T17:59:07.859Z,11.10
2018-03-27T18:01:42.356Z,11.10
2018-03-27T18:04:16.020Z,11.00
2018-03-27T18:06:49.826Z,11.00
2018-03-27T18:09:23.698Z,10.90
2018-03-27T18:11:57.615Z,10.90
2018-03-27T18:14:32.219Z,10.80
2018-03-27T18:17:06.108Z,10.80
2018-03-27T18:19:40.748Z,10.60
2018-03-27T18:22:14.639Z,10.60
2018-03-27T18:24:49.195Z,10.50
2018-03-27T18:27:22.897Z,10.40
2018-03-27T18:29:57.412Z,10.00
2018-03-27T18:32:31.303Z,10.00
2018-03-27T18:35:05.106Z,9.90
2018-03-27T18:37:38.971Z,9.60
2018-03-27T18:40:13.534Z,9.40
2018-03-27T18:42:47.248Z,9.30
2018-03-27T18:45:21.801Z,9.30
2018-03-27T18:47:55.520Z,9.30
2018-03-27T18:50:29.280Z,9.30
2018-03-27T18:53:03.194Z,9.20
2018-03-27T18:55:36.932Z,9.20
2018-03-27T18:58:11.436Z,9.20
2018-03-27T19:00:45.136Z,9.20
2018-03-27T19:03:18.976Z,9.20
2018-03-27T19:05:53.431Z,9.10
2018-03-27T19:08:28.612Z,9.10
2018-03-27T19:11:02.368Z,9.10
2018-03-27T19:13:36.216Z,9.10
2018-03-27T19:16:10.028Z,9.10
2018-03-27T19:18:44.698Z,9.10
2018-03-27T19:21:19.354Z,9.10
2018-03-27T19:23:54.004Z,9.10
2018-03-27T19:26:28.618Z,9.20
2018-03-27T19:29:02.345Z,9.10
2018-03-27T19:31:36.136Z,9.20
2018-03-27T19:34:09.948Z,9.20
2018-03-27T19:36:44.515Z,9.20
2018-03-27T19:39:19.084Z,9.20
2018-03-27T19:41:52.691Z,9.20
2018-03-27T19:44:26.610Z,9.20
2018-03-27T19:47:00.313Z,9.20
2018-03-27T19:49:34.151Z,9.10
2018-03-27T19:52:07.895Z,9.10
2018-03-27T19:54:42.758Z,9.20
2018-03-27T19:57:16.494Z,9.10
2018-03-27T19:59:50.338Z,9.20
2018-03-27T20:02:24.074Z,9.20
2018-03-27T20:04:58.998Z,9.10
2018-03-27T20:07:33.395Z,9.00
2018-03-27T20:10:07.212Z,9.00
2018-03-27T20:12:40.986Z,9.00
2018-03-27T20:15:14.704Z,8.90
2018-03-27T20:17:49.132Z,8.80
2018-03-27T20:20:24.632Z,8.90
2018-03-27T20:22:58.604Z,8.80
2018-03-27T20:25:33.206Z,8.80
2018-03-27T20:28:07.035Z,8.80
2018-03-27T20:30:40.824Z,8.80
2018-03-27T20:33:15.367Z,8.70
2018-03-27T20:35:49.149Z,8.70
2018-03-27T20:38:22.977Z,8.70
2018-03-27T20:43:34.204Z,8.70
2018-03-27T20:46:08.799Z,8.70
2018-03-27T20:48:42.667Z,8.70
2018-03-27T20:51:16.416Z,8.70
2018-03-27T20:53:50.227Z,8.70
2018-03-27T20:56:24.836Z,8.60
2018-03-27T20:58:58.683Z,8.60
